Smiley, Texas
Current Conditions -  °F | °C
As of 1:35 AM on Wednesday 26 Nov 2014 (Local Time) from KT20 Reporting Station
Thunderstorm Thunderstorm  
Wind Chill: 45°   Ceiling: Unl
Heat Index: 45°   Visibility: 10mi
Dew Point: 34°   Wind: 0mph
Humidity: 65%   Direction: NA
Pressure: 30.21"   Gusts: NA
Location:  29.27°N, 97.64°W
Report Text: KT20 260735Z AUTO 00000KT 10SM VCTS CLR 07/01 A3021 RMK AO2 T00710010
Loading
Personal Weather Stations






























Interactive Weather Map New forecast layout! Learn more

10-Day Weather Forecast

Advertisements
Track Severe Weather on mobile